sensor_id;sensor_type;location;lat;lon;timestamp;temperature;humidity
8643;DHT22;4359;49.358;11.256;2023-07-16T00:00:25;19.60;99.90
8643;DHT22;4359;49.358;11.256;2023-07-16T00:02:50;19.60;99.90
8643;DHT22;4359;49.358;11.256;2023-07-16T00:05:16;19.50;99.90
8643;DHT22;4359;49.358;11.256;2023-07-16T00:07:45;19.40;99.90
8643;DHT22;4359;49.358;11.256;2023-07-16T00:10:10;19.50;99.90
8643;DHT22;4359;49.358;11.256;2023-07-16T00:12:36;19.50;99.90
8643;DHT22;4359;49.358;11.256;2023-07-16T00:15:02;19.50;99.90
8643;DHT22;4359;49.358;11.256;2023-07-16T00:17:28;19.50;99.90
8643;DHT22;4359;49.358;11.256;2023-07-16T00:19:56;19.60;99.90
8643;DHT22;4359;49.358;11.256;2023-07-16T00:22:22;19.50;99.90
8643;DHT22;4359;49.358;11.256;2023-07-16T00:24:47;19.60;99.90
8643;DHT22;4359;49.358;11.256;2023-07-16T00:27:13;19.50;99.90
8643;DHT22;4359;49.358;11.256;2023-07-16T00:29:44;19.50;99.90
8643;DHT22;4359;49.358;11.256;2023-07-16T00:32:11;19.40;99.90
8643;DHT22;4359;49.358;11.256;2023-07-16T00:34:37;19.40;99.90
8643;DHT22;4359;49.358;11.256;2023-07-16T00:37:02;19.40;99.90
8643;DHT22;4359;49.358;11.256;2023-07-16T00:39:29;19.30;99.90
8643;DHT22;4359;49.358;11.256;2023-07-16T00:41:54;19.40;99.90
8643;DHT22;4359;49.358;11.256;2023-07-16T00:44:22;19.30;99.90
8643;DHT22;4359;49.358;11.256;2023-07-16T00:46:50;19.30;99.90
8643;DHT22;4359;49.358;11.256;2023-07-16T00:49:17;19.20;99.90
8643;DHT22;4359;49.358;11.256;2023-07-16T00:51:42;19.20;99.90
8643;DHT22;4359;49.358;11.256;2023-07-16T00:54:08;19.20;99.90
8643;DHT22;4359;49.358;11.256;2023-07-16T00:56:35;19.20;99.90
8643;DHT22;4359;49.358;11.256;2023-07-16T00:59:01;19.20;99.90
8643;DHT22;4359;49.358;11.256;2023-07-16T01:01:27;19.20;99.90
8643;DHT22;4359;49.358;11.256;2023-07-16T01:03:54;19.20;99.90
8643;DHT22;4359;49.358;11.256;2023-07-16T01:06:41;19.20;99.90
8643;DHT22;4359;49.358;11.256;2023-07-16T01:09:16;19.20;99.90
8643;DHT22;4359;49.358;11.256;2023-07-16T01:11:43;19.20;99.90
8643;DHT22;4359;49.358;11.256;2023-07-16T01:14:10;19.20;99.90
8643;DHT22;4359;49.358;11.256;2023-07-16T01:16:36;19.20;99.90
8643;DHT22;4359;49.358;11.256;2023-07-16T01:19:02;19.20;99.90
8643;DHT22;4359;49.358;11.256;2023-07-16T01:30:28;19.40;99.90
8643;DHT22;4359;49.358;11.256;2023-07-16T01:32:57;19.40;99.90
8643;DHT22;4359;49.358;11.256;2023-07-16T01:35:24;19.30;99.90
8643;DHT22;4359;49.358;11.256;2023-07-16T01:37:53;19.30;99.90
8643;DHT22;4359;49.358;11.256;2023-07-16T01:40:22;19.20;99.90
8643;DHT22;4359;49.358;11.256;2023-07-16T01:42:50;19.20;99.90
8643;DHT22;4359;49.358;11.256;2023-07-16T01:45:19;19.20;99.90
8643;DHT22;4359;49.358;11.256;2023-07-16T01:50:29;19.10;99.90
8643;DHT22;4359;49.358;11.256;2023-07-16T01:52:55;19.10;99.90
8643;DHT22;4359;49.358;11.256;2023-07-16T01:55:20;19.00;99.90
8643;DHT22;4359;49.358;11.256;2023-07-16T01:57:49;19.00;99.90
8643;DHT22;4359;49.358;11.256;2023-07-16T02:00:22;19.00;99.90
8643;DHT22;4359;49.358;11.256;2023-07-16T02:02:47;19.00;99.90
8643;DHT22;4359;49.358;11.256;2023-07-16T02:05:14;19.00;99.90
8643;DHT22;4359;49.358;11.256;2023-07-16T02:07:40;18.90;99.90
8643;DHT22;4359;49.358;11.256;2023-07-16T02:10:09;18.90;99.90
8643;DHT22;4359;49.358;11.256;2023-07-16T02:12:34;18.80;99.90
8643;DHT22;4359;49.358;11.256;2023-07-16T02:15:00;18.80;99.90
8643;DHT22;4359;49.358;11.256;2023-07-16T02:17:25;18.80;99.90
8643;DHT22;4359;49.358;11.256;2023-07-16T02:19:51;18.80;99.90
8643;DHT22;4359;49.358;11.256;2023-07-16T02:22:17;18.80;99.90
8643;DHT22;4359;49.358;11.256;2023-07-16T02:24:42;18.80;99.90
8643;DHT22;4359;49.358;11.256;2023-07-16T02:27:11;18.80;99.90
8643;DHT22;4359;49.358;11.256;2023-07-16T02:29:36;18.80;99.90
8643;DHT22;4359;49.358;11.256;2023-07-16T02:32:02;18.80;99.90
8643;DHT22;4359;49.358;11.256;2023-07-16T02:34:28;18.70;99.90
8643;DHT22;4359;49.358;11.256;2023-07-16T02:36:53;18.60;99.90
8643;DHT22;4359;49.358;11.256;2023-07-16T02:39:19;18.60;99.90
8643;DHT22;4359;49.358;11.256;2023-07-16T02:41:45;18.60;99.90
8643;DHT22;4359;49.358;11.256;2023-07-16T02:44:10;18.60;99.90
8643;DHT22;4359;49.358;11.256;2023-07-16T02:46:36;18.60;99.90
8643;DHT22;4359;49.358;11.256;2023-07-16T02:49:02;18.60;99.90
8643;DHT22;4359;49.358;11.256;2023-07-16T02:51:28;18.50;99.90
8643;DHT22;4359;49.358;11.256;2023-07-16T02:53:54;18.60;99.90
8643;DHT22;4359;49.358;11.256;2023-07-16T02:56:19;18.60;99.90
8643;DHT22;4359;49.358;11.256;2023-07-16T02:58:45;18.70;99.90
8643;DHT22;4359;49.358;11.256;2023-07-16T03:01:12;18.60;99.90
8643;DHT22;4359;49.358;11.256;2023-07-16T03:03:37;18.60;99.90
8643;DHT22;4359;49.358;11.256;2023-07-16T03:06:03;18.60;99.90
8643;DHT22;4359;49.358;11.256;2023-07-16T03:08:29;18.60;99.90
8643;DHT22;4359;49.358;11.256;2023-07-16T03:10:56;18.60;99.90
8643;DHT22;4359;49.358;11.256;2023-07-16T03:13:22;18.50;99.90
8643;DHT22;4359;49.358;11.256;2023-07-16T03:15:47;18.50;99.90
8643;DHT22;4359;49.358;11.256;2023-07-16T03:18:13;18.50;99.90
8643;DHT22;4359;49.358;11.256;2023-07-16T03:20:41;18.60;99.90
8643;DHT22;4359;49.358;11.256;2023-07-16T03:23:06;18.50;99.90
8643;DHT22;4359;49.358;11.256;2023-07-16T03:25:35;18.50;99.90
8643;DHT22;4359;49.358;11.256;2023-07-16T03:28:01;18.50;99.90
8643;DHT22;4359;49.358;11.256;2023-07-16T03:30:31;18.50;99.90
8643;DHT22;4359;49.358;11.256;2023-07-16T03:33:00;18.40;99.90
8643;DHT22;4359;49.358;11.256;2023-07-16T03:35:29;18.40;99.90
8643;DHT22;4359;49.358;11.256;2023-07-16T03:37:54;18.40;99.90
8643;DHT22;4359;49.358;11.256;2023-07-16T03:40:24;18.40;99.90
8643;DHT22;4359;49.358;11.256;2023-07-16T03:42:50;18.30;99.90
8643;DHT22;4359;49.358;11.256;2023-07-16T03:45:16;18.30;99.90
8643;DHT22;4359;49.358;11.256;2023-07-16T03:47:42;18.30;99.90
8643;DHT22;4359;49.358;11.256;2023-07-16T03:50:17;18.30;99.90
8643;DHT22;4359;49.358;11.256;2023-07-16T03:52:43;18.30;99.90
8643;DHT22;4359;49.358;11.256;2023-07-16T03:55:09;18.30;99.90
8643;DHT22;4359;49.358;11.256;2023-07-16T03:57:35;18.20;99.90
8643;DHT22;4359;49.358;11.256;2023-07-16T04:00:02;18.20;99.90
8643;DHT22;4359;49.358;11.256;2023-07-16T04:02:29;18.10;99.90
8643;DHT22;4359;49.358;11.256;2023-07-16T04:04:55;18.10;99.90
8643;DHT22;4359;49.358;11.256;2023-07-16T04:07:20;18.10;99.90
8643;DHT22;4359;49.358;11.256;2023-07-16T04:09:47;18.10;99.90
8643;DHT22;4359;49.358;11.256;2023-07-16T04:12:13;18.10;99.90
8643;DHT22;4359;49.358;11.256;2023-07-16T04:14:38;18.10;99.90
8643;DHT22;4359;49.358;11.256;2023-07-16T04:17:04;18.10;99.90
8643;DHT22;4359;49.358;11.256;2023-07-16T04:19:31;18.10;99.90
8643;DHT22;4359;49.358;11.256;2023-07-16T04:22:00;18.00;99.90
8643;DHT22;4359;49.358;11.256;2023-07-16T04:24:28;18.00;99.90
8643;DHT22;4359;49.358;11.256;2023-07-16T04:26:54;18.00;99.90
8643;DHT22;4359;49.358;11.256;2023-07-16T04:29:26;18.10;99.90
8643;DHT22;4359;49.358;11.256;2023-07-16T04:31:51;18.10;99.90
8643;DHT22;4359;49.358;11.256;2023-07-16T04:34:17;18.10;99.90
8643;DHT22;4359;49.358;11.256;2023-07-16T04:36:43;18.10;99.90
8643;DHT22;4359;49.358;11.256;2023-07-16T04:39:09;18.10;99.90
8643;DHT22;4359;49.358;11.256;2023-07-16T04:41:35;18.00;99.90
8643;DHT22;4359;49.358;11.256;2023-07-16T04:44:00;17.90;99.90
8643;DHT22;4359;49.358;11.256;2023-07-16T04:46:29;17.90;99.90
8643;DHT22;4359;49.358;11.256;2023-07-16T04:48:55;17.80;99.90
8643;DHT22;4359;49.358;11.256;2023-07-16T04:51:21;17.80;99.90
8643;DHT22;4359;49.358;11.256;2023-07-16T04:53:48;17.70;99.90
8643;DHT22;4359;49.358;11.256;2023-07-16T04:56:15;17.60;99.90
8643;DHT22;4359;49.358;11.256;2023-07-16T04:58:41;17.50;99.90
8643;DHT22;4359;49.358;11.256;2023-07-16T05:01:08;17.40;99.90
8643;DHT22;4359;49.358;11.256;2023-07-16T05:03:34;17.40;99.90
8643;DHT22;4359;49.358;11.256;2023-07-16T05:06:03;17.40;99.90
8643;DHT22;4359;49.358;11.256;2023-07-16T05:08:32;17.50;99.90
8643;DHT22;4359;49.358;11.256;2023-07-16T05:11:01;17.50;99.90
8643;DHT22;4359;49.358;11.256;2023-07-16T05:13:26;17.60;99.90
8643;DHT22;4359;49.358;11.256;2023-07-16T05:15:52;17.60;99.90
8643;DHT22;4359;49.358;11.256;2023-07-16T05:18:18;17.50;99.90
8643;DHT22;4359;49.358;11.256;2023-07-16T05:20:47;17.60;99.90
8643;DHT22;4359;49.358;11.256;2023-07-16T05:23:15;17.70;99.90
8643;DHT22;4359;49.358;11.256;2023-07-16T05:25:50;17.60;99.90
8643;DHT22;4359;49.358;11.256;2023-07-16T05:28:17;17.60;99.90
8643;DHT22;4359;49.358;11.256;2023-07-16T05:30:42;17.70;99.90
8643;DHT22;4359;49.358;11.256;2023-07-16T05:33:10;17.70;99.90
8643;DHT22;4359;49.358;11.256;2023-07-16T05:35:38;17.80;99.90
8643;DHT22;4359;49.358;11.256;2023-07-16T05:38:04;17.90;99.90
8643;DHT22;4359;49.358;11.256;2023-07-16T05:40:30;17.90;99.90
8643;DHT22;4359;49.358;11.256;2023-07-16T05:42:55;17.90;99.90
8643;DHT22;4359;49.358;11.256;2023-07-16T05:45:21;17.90;99.90
8643;DHT22;4359;49.358;11.256;2023-07-16T05:47:47;18.00;99.90
8643;DHT22;4359;49.358;11.256;2023-07-16T05:50:15;17.80;99.90
8643;DHT22;4359;49.358;11.256;2023-07-16T05:52:44;17.70;99.90
8643;DHT22;4359;49.358;11.256;2023-07-16T05:55:14;17.60;99.90
8643;DHT22;4359;49.358;11.256;2023-07-16T05:57:44;17.50;99.90
8643;DHT22;4359;49.358;11.256;2023-07-16T06:00:10;17.40;99.90
8643;DHT22;4359;49.358;11.256;2023-07-16T06:02:39;17.40;99.90
8643;DHT22;4359;49.358;11.256;2023-07-16T06:05:05;17.40;99.90
8643;DHT22;4359;49.358;11.256;2023-07-16T06:07:31;17.50;99.90
8643;DHT22;4359;49.358;11.256;2023-07-16T06:09:57;17.70;99.90
8643;DHT22;4359;49.358;11.256;2023-07-16T06:12:23;17.80;99.90
8643;DHT22;4359;49.358;11.256;2023-07-16T06:14:49;18.10;99.90
8643;DHT22;4359;49.358;11.256;2023-07-16T06:17:15;18.30;99.90
8643;DHT22;4359;49.358;11.256;2023-07-16T06:19:41;18.50;99.90
8643;DHT22;4359;49.358;11.256;2023-07-16T06:22:06;18.60;99.90
8643;DHT22;4359;49.358;11.256;2023-07-16T06:24:34;18.60;99.90
8643;DHT22;4359;49.358;11.256;2023-07-16T06:27:00;18.70;99.90
8643;DHT22;4359;49.358;11.256;2023-07-16T06:29:25;18.50;99.90
8643;DHT22;4359;49.358;11.256;2023-07-16T06:31:58;18.60;99.90
8643;DHT22;4359;49.358;11.256;2023-07-16T06:34:24;18.70;99.90
8643;DHT22;4359;49.358;11.256;2023-07-16T06:36:50;18.70;99.90
8643;DHT22;4359;49.358;11.256;2023-07-16T06:39:16;18.80;99.90
8643;DHT22;4359;49.358;11.256;2023-07-16T06:41:42;18.90;99.90
8643;DHT22;4359;49.358;11.256;2023-07-16T06:44:07;18.90;99.90
8643;DHT22;4359;49.358;11.256;2023-07-16T06:46:33;18.90;99.90
8643;DHT22;4359;49.358;11.256;2023-07-16T06:48:59;18.90;99.90
8643;DHT22;4359;49.358;11.256;2023-07-16T06:51:25;18.90;99.90
8643;DHT22;4359;49.358;11.256;2023-07-16T06:53:50;18.90;99.90
8643;DHT22;4359;49.358;11.256;2023-07-16T06:56:16;18.90;99.90
8643;DHT22;4359;49.358;11.256;2023-07-16T06:58:42;18.90;99.90
8643;DHT22;4359;49.358;11.256;2023-07-16T07:01:07;19.00;99.90
8643;DHT22;4359;49.358;11.256;2023-07-16T07:03:33;19.20;99.90
8643;DHT22;4359;49.358;11.256;2023-07-16T07:06:04;19.30;99.90
8643;DHT22;4359;49.358;11.256;2023-07-16T07:08:30;19.30;99.90
8643;DHT22;4359;49.358;11.256;2023-07-16T07:10:57;19.30;99.90
8643;DHT22;4359;49.358;11.256;2023-07-16T07:13:24;19.40;99.90
8643;DHT22;4359;49.358;11.256;2023-07-16T07:15:50;19.30;99.90
8643;DHT22;4359;49.358;11.256;2023-07-16T07:18:15;19.30;99.90
8643;DHT22;4359;49.358;11.256;2023-07-16T07:20:41;19.40;99.90
8643;DHT22;4359;49.358;11.256;2023-07-16T07:23:07;19.60;99.90
8643;DHT22;4359;49.358;11.256;2023-07-16T07:25:33;19.70;99.90
8643;DHT22;4359;49.358;11.256;2023-07-16T07:27:59;19.70;99.90
8643;DHT22;4359;49.358;11.256;2023-07-16T07:30:25;19.60;99.90
8643;DHT22;4359;49.358;11.256;2023-07-16T07:32:51;19.50;99.90
8643;DHT22;4359;49.358;11.256;2023-07-16T07:35:16;19.20;99.90
8643;DHT22;4359;49.358;11.256;2023-07-16T07:37:42;19.20;99.90
8643;DHT22;4359;49.358;11.256;2023-07-16T07:40:08;19.00;99.90
8643;DHT22;4359;49.358;11.256;2023-07-16T07:42:34;19.10;99.90
8643;DHT22;4359;49.358;11.256;2023-07-16T07:44:59;19.10;99.90
8643;DHT22;4359;49.358;11.256;2023-07-16T07:47:25;19.20;99.90
8643;DHT22;4359;49.358;11.256;2023-07-16T07:49:52;19.40;99.90
8643;DHT22;4359;49.358;11.256;2023-07-16T07:52:18;19.40;99.90
8643;DHT22;4359;49.358;11.256;2023-07-16T07:54:44;19.50;99.90
8643;DHT22;4359;49.358;11.256;2023-07-16T07:57:09;19.50;99.90
8643;DHT22;4359;49.358;11.256;2023-07-16T07:59:35;19.40;99.90
8643;DHT22;4359;49.358;11.256;2023-07-16T08:02:01;19.40;99.90
8643;DHT22;4359;49.358;11.256;2023-07-16T08:04:29;19.50;99.90
8643;DHT22;4359;49.358;11.256;2023-07-16T08:06:57;19.50;99.90
8643;DHT22;4359;49.358;11.256;2023-07-16T08:09:23;19.40;99.90
8643;DHT22;4359;49.358;11.256;2023-07-16T08:11:49;19.30;99.90
8643;DHT22;4359;49.358;11.256;2023-07-16T08:14:15;19.30;99.90
8643;DHT22;4359;49.358;11.256;2023-07-16T08:16:40;19.30;99.90
8643;DHT22;4359;49.358;11.256;2023-07-16T08:19:06;19.40;99.90
8643;DHT22;4359;49.358;11.256;2023-07-16T08:21:35;19.40;99.90
8643;DHT22;4359;49.358;11.256;2023-07-16T08:24:01;19.60;99.90
8643;DHT22;4359;49.358;11.256;2023-07-16T08:26:27;19.80;99.90
8643;DHT22;4359;49.358;11.256;2023-07-16T08:28:52;19.90;99.90
8643;DHT22;4359;49.358;11.256;2023-07-16T08:31:18;20.00;99.90
8643;DHT22;4359;49.358;11.256;2023-07-16T08:33:43;20.30;99.90
8643;DHT22;4359;49.358;11.256;2023-07-16T08:36:10;20.40;99.90
8643;DHT22;4359;49.358;11.256;2023-07-16T08:38:36;20.70;99.90
8643;DHT22;4359;49.358;11.256;2023-07-16T08:41:02;21.00;99.90
8643;DHT22;4359;49.358;11.256;2023-07-16T08:43:29;21.10;99.90
8643;DHT22;4359;49.358;11.256;2023-07-16T08:45:55;21.40;99.90
8643;DHT22;4359;49.358;11.256;2023-07-16T08:48:21;21.40;99.90
8643;DHT22;4359;49.358;11.256;2023-07-16T08:50:48;21.70;99.90
8643;DHT22;4359;49.358;11.256;2023-07-16T08:53:18;21.80;99.90
8643;DHT22;4359;49.358;11.256;2023-07-16T08:55:45;22.00;99.90
8643;DHT22;4359;49.358;11.256;2023-07-16T08:58:14;22.10;99.90
8643;DHT22;4359;49.358;11.256;2023-07-16T09:00:43;22.00;99.90
8643;DHT22;4359;49.358;11.256;2023-07-16T09:03:13;21.90;99.90
8643;DHT22;4359;49.358;11.256;2023-07-16T09:05:42;21.70;99.90
8643;DHT22;4359;49.358;11.256;2023-07-16T09:08:07;21.50;99.90
8643;DHT22;4359;49.358;11.256;2023-07-16T09:10:33;21.40;99.90
8643;DHT22;4359;49.358;11.256;2023-07-16T09:12:59;20.90;99.90
8643;DHT22;4359;49.358;11.256;2023-07-16T09:15:27;20.80;99.90
8643;DHT22;4359;49.358;11.256;2023-07-16T09:17:54;20.50;99.90
8643;DHT22;4359;49.358;11.256;2023-07-16T09:20:20;20.40;99.90
8643;DHT22;4359;49.358;11.256;2023-07-16T09:22:47;20.40;99.90
8643;DHT22;4359;49.358;11.256;2023-07-16T09:25:13;20.40;99.90
8643;DHT22;4359;49.358;11.256;2023-07-16T09:27:39;20.80;99.90
8643;DHT22;4359;49.358;11.256;2023-07-16T09:30:06;21.40;99.90
8643;DHT22;4359;49.358;11.256;2023-07-16T09:32:38;21.90;99.90
8643;DHT22;4359;49.358;11.256;2023-07-16T09:35:14;22.70;99.90
8643;DHT22;4359;49.358;11.256;2023-07-16T09:37:43;22.60;99.90
8643;DHT22;4359;49.358;11.256;2023-07-16T09:40:11;23.00;99.90
8643;DHT22;4359;49.358;11.256;2023-07-16T09:42:38;22.70;99.90
8643;DHT22;4359;49.358;11.256;2023-07-16T09:45:12;22.30;99.90
8643;DHT22;4359;49.358;11.256;2023-07-16T09:47:39;21.80;99.90
8643;DHT22;4359;49.358;11.256;2023-07-16T09:50:06;21.70;99.90
8643;DHT22;4359;49.358;11.256;2023-07-16T09:52:32;21.50;99.90
8643;DHT22;4359;49.358;11.256;2023-07-16T09:55:01;21.80;99.90
8643;DHT22;4359;49.358;11.256;2023-07-16T09:57:30;22.20;99.90
8643;DHT22;4359;49.358;11.256;2023-07-16T10:00:02;22.30;99.90
8643;DHT22;4359;49.358;11.256;2023-07-16T10:02:33;22.40;99.90
8643;DHT22;4359;49.358;11.256;2023-07-16T10:04:59;22.40;99.90
8643;DHT22;4359;49.358;11.256;2023-07-16T10:07:25;22.70;99.90
8643;DHT22;4359;49.358;11.256;2023-07-16T10:09:56;22.80;99.90
8643;DHT22;4359;49.358;11.256;2023-07-16T10:12:24;22.70;99.90
8643;DHT22;4359;49.358;11.256;2023-07-16T10:14:52;22.70;99.90
8643;DHT22;4359;49.358;11.256;2023-07-16T10:17:22;23.50;99.90
8643;DHT22;4359;49.358;11.256;2023-07-16T10:22:14;23.40;99.90
8643;DHT22;4359;49.358;11.256;2023-07-16T10:24:40;23.50;99.90
8643;DHT22;4359;49.358;11.256;2023-07-16T10:27:06;23.60;99.90
8643;DHT22;4359;49.358;11.256;2023-07-16T10:29:32;23.70;99.90
8643;DHT22;4359;49.358;11.256;2023-07-16T10:31:58;23.90;99.90
8643;DHT22;4359;49.358;11.256;2023-07-16T10:34:24;24.50;99.90
8643;DHT22;4359;49.358;11.256;2023-07-16T10:36:51;24.50;99.90
8643;DHT22;4359;49.358;11.256;2023-07-16T10:39:17;24.90;99.90
8643;DHT22;4359;49.358;11.256;2023-07-16T10:41:43;25.10;99.90
8643;DHT22;4359;49.358;11.256;2023-07-16T10:44:10;25.50;99.90
8643;DHT22;4359;49.358;11.256;2023-07-16T10:46:37;25.70;99.90
8643;DHT22;4359;49.358;11.256;2023-07-16T10:49:03;26.20;99.90
8643;DHT22;4359;49.358;11.256;2023-07-16T10:51:28;26.40;99.90
8643;DHT22;4359;49.358;11.256;2023-07-16T10:53:58;25.80;99.90
8643;DHT22;4359;49.358;11.256;2023-07-16T10:56:24;25.70;99.90
8643;DHT22;4359;49.358;11.256;2023-07-16T10:58:49;26.00;99.90
8643;DHT22;4359;49.358;11.256;2023-07-16T11:01:16;26.60;99.90
8643;DHT22;4359;49.358;11.256;2023-07-16T11:03:41;26.80;99.90
8643;DHT22;4359;49.358;11.256;2023-07-16T11:06:09;26.60;99.90
8643;DHT22;4359;49.358;11.256;2023-07-16T11:08:34;26.90;99.90
8643;DHT22;4359;49.358;11.256;2023-07-16T11:11:00;26.80;99.90
8643;DHT22;4359;49.358;11.256;2023-07-16T11:13:31;27.00;99.90
8643;DHT22;4359;49.358;11.256;2023-07-16T11:16:06;26.70;99.90
8643;DHT22;4359;49.358;11.256;2023-07-16T11:18:31;26.60;99.90
8643;DHT22;4359;49.358;11.256;2023-07-16T11:20:59;26.30;99.90
8643;DHT22;4359;49.358;11.256;2023-07-16T11:23:25;26.00;99.90
8643;DHT22;4359;49.358;11.256;2023-07-16T11:25:52;25.80;99.90
8643;DHT22;4359;49.358;11.256;2023-07-16T11:28:18;25.60;99.90
8643;DHT22;4359;49.358;11.256;2023-07-16T11:30:44;24.90;99.90
8643;DHT22;4359;49.358;11.256;2023-07-16T11:33:11;24.70;99.90
8643;DHT22;4359;49.358;11.256;2023-07-16T11:35:37;24.60;99.90
8643;DHT22;4359;49.358;11.256;2023-07-16T11:38:05;24.10;99.90
8643;DHT22;4359;49.358;11.256;2023-07-16T11:40:34;23.50;99.90
8643;DHT22;4359;49.358;11.256;2023-07-16T11:43:13;23.70;99.90
8643;DHT22;4359;49.358;11.256;2023-07-16T11:45:39;24.00;99.90
8643;DHT22;4359;49.358;11.256;2023-07-16T11:48:05;24.30;99.90
8643;DHT22;4359;49.358;11.256;2023-07-16T11:50:31;24.30;99.90
8643;DHT22;4359;49.358;11.256;2023-07-16T11:53:00;24.40;99.90
8643;DHT22;4359;49.358;11.256;2023-07-16T11:55:29;24.40;99.90
8643;DHT22;4359;49.358;11.256;2023-07-16T11:57:55;24.40;99.90
8643;DHT22;4359;49.358;11.256;2023-07-16T12:00:22;24.70;99.90
8643;DHT22;4359;49.358;11.256;2023-07-16T12:02:48;24.90;99.90
8643;DHT22;4359;49.358;11.256;2023-07-16T12:05:21;24.80;99.90
8643;DHT22;4359;49.358;11.256;2023-07-16T12:07:46;24.80;99.90
8643;DHT22;4359;49.358;11.256;2023-07-16T12:10:12;24.40;99.90
8643;DHT22;4359;49.358;11.256;2023-07-16T12:12:38;24.20;99.90
8643;DHT22;4359;49.358;11.256;2023-07-16T12:15:07;24.00;99.90
8643;DHT22;4359;49.358;11.256;2023-07-16T12:17:34;24.30;99.90
8643;DHT22;4359;49.358;11.256;2023-07-16T12:20:00;25.00;99.90
8643;DHT22;4359;49.358;11.256;2023-07-16T12:22:26;26.20;99.90
8643;DHT22;4359;49.358;11.256;2023-07-16T12:24:52;26.40;99.90
8643;DHT22;4359;49.358;11.256;2023-07-16T12:27:18;26.10;99.90
8643;DHT22;4359;49.358;11.256;2023-07-16T12:29:45;25.50;99.90
8643;DHT22;4359;49.358;11.256;2023-07-16T12:32:11;25.30;99.90
8643;DHT22;4359;49.358;11.256;2023-07-16T12:34:37;25.50;99.90
8643;DHT22;4359;49.358;11.256;2023-07-16T12:37:02;26.00;99.90
8643;DHT22;4359;49.358;11.256;2023-07-16T12:39:28;26.50;99.90
8643;DHT22;4359;49.358;11.256;2023-07-16T12:41:54;26.50;99.90
8643;DHT22;4359;49.358;11.256;2023-07-16T12:44:20;26.60;99.90
8643;DHT22;4359;49.358;11.256;2023-07-16T12:46:45;26.40;99.90
8643;DHT22;4359;49.358;11.256;2023-07-16T12:49:11;26.20;99.90
8643;DHT22;4359;49.358;11.256;2023-07-16T12:51:37;26.20;99.90
8643;DHT22;4359;49.358;11.256;2023-07-16T12:54:02;26.20;99.90
8643;DHT22;4359;49.358;11.256;2023-07-16T12:56:28;26.50;99.90
8643;DHT22;4359;49.358;11.256;2023-07-16T12:58:54;26.00;99.90
8643;DHT22;4359;49.358;11.256;2023-07-16T13:01:20;26.20;99.90
8643;DHT22;4359;49.358;11.256;2023-07-16T13:03:45;26.70;99.90
8643;DHT22;4359;49.358;11.256;2023-07-16T13:06:11;27.30;99.90
8643;DHT22;4359;49.358;11.256;2023-07-16T13:08:37;27.50;99.90
8643;DHT22;4359;49.358;11.256;2023-07-16T13:11:02;27.20;99.90
8643;DHT22;4359;49.358;11.256;2023-07-16T13:13:28;26.60;99.90
8643;DHT22;4359;49.358;11.256;2023-07-16T13:15:55;27.20;99.90
8643;DHT22;4359;49.358;11.256;2023-07-16T13:18:21;28.00;99.90
8643;DHT22;4359;49.358;11.256;2023-07-16T13:20:46;28.70;99.90
8643;DHT22;4359;49.358;11.256;2023-07-16T13:23:12;28.70;99.90
8643;DHT22;4359;49.358;11.256;2023-07-16T13:25:38;28.60;99.90
8643;DHT22;4359;49.358;11.256;2023-07-16T13:28:08;29.30;99.90
8643;DHT22;4359;49.358;11.256;2023-07-16T13:30:34;29.70;99.90
8643;DHT22;4359;49.358;11.256;2023-07-16T13:32:59;29.70;99.90
8643;DHT22;4359;49.358;11.256;2023-07-16T13:35:26;29.70;99.90
8643;DHT22;4359;49.358;11.256;2023-07-16T13:37:52;29.50;99.90
8643;DHT22;4359;49.358;11.256;2023-07-16T13:40:18;29.00;99.90
8643;DHT22;4359;49.358;11.256;2023-07-16T13:42:46;28.50;99.90
8643;DHT22;4359;49.358;11.256;2023-07-16T13:45:12;28.70;99.90
8643;DHT22;4359;49.358;11.256;2023-07-16T13:47:38;28.50;99.90
8643;DHT22;4359;49.358;11.256;2023-07-16T13:50:04;29.00;99.90
8643;DHT22;4359;49.358;11.256;2023-07-16T13:52:30;30.00;99.90
8643;DHT22;4359;49.358;11.256;2023-07-16T13:54:55;30.80;99.90
8643;DHT22;4359;49.358;11.256;2023-07-16T13:57:21;31.40;99.90
8643;DHT22;4359;49.358;11.256;2023-07-16T13:59:47;31.10;99.90
8643;DHT22;4359;49.358;11.256;2023-07-16T14:02:12;29.70;99.90
8643;DHT22;4359;49.358;11.256;2023-07-16T14:04:38;29.70;99.90
8643;DHT22;4359;49.358;11.256;2023-07-16T14:07:04;29.80;99.90
8643;DHT22;4359;49.358;11.256;2023-07-16T14:09:29;29.50;99.90
8643;DHT22;4359;49.358;11.256;2023-07-16T14:11:55;28.70;99.90
8643;DHT22;4359;49.358;11.256;2023-07-16T14:14:22;28.80;99.90
8643;DHT22;4359;49.358;11.256;2023-07-16T14:16:47;29.20;99.90
8643;DHT22;4359;49.358;11.256;2023-07-16T14:19:13;28.70;99.90
8643;DHT22;4359;49.358;11.256;2023-07-16T14:21:39;28.20;99.90
8643;DHT22;4359;49.358;11.256;2023-07-16T14:24:05;28.50;99.90
8643;DHT22;4359;49.358;11.256;2023-07-16T14:26:31;29.00;99.90
8643;DHT22;4359;49.358;11.256;2023-07-16T14:28:57;29.50;99.90
8643;DHT22;4359;49.358;11.256;2023-07-16T14:31:23;30.00;99.90
8643;DHT22;4359;49.358;11.256;2023-07-16T14:33:48;29.40;99.90
8643;DHT22;4359;49.358;11.256;2023-07-16T14:36:14;28.70;99.90
8643;DHT22;4359;49.358;11.256;2023-07-16T14:38:40;29.50;99.90
8643;DHT22;4359;49.358;11.256;2023-07-16T14:41:05;29.80;99.90
8643;DHT22;4359;49.358;11.256;2023-07-16T14:43:33;29.60;99.90
8643;DHT22;4359;49.358;11.256;2023-07-16T14:45:58;28.90;99.90
8643;DHT22;4359;49.358;11.256;2023-07-16T14:48:24;29.20;99.90
8643;DHT22;4359;49.358;11.256;2023-07-16T14:50:52;29.60;99.90
8643;DHT22;4359;49.358;11.256;2023-07-16T14:53:17;30.40;99.90
8643;DHT22;4359;49.358;11.256;2023-07-16T14:55:48;30.40;99.90
8643;DHT22;4359;49.358;11.256;2023-07-16T14:58:14;30.30;99.90
8643;DHT22;4359;49.358;11.256;2023-07-16T15:00:40;30.30;99.60
8643;DHT22;4359;49.358;11.256;2023-07-16T15:03:05;31.10;99.80
8643;DHT22;4359;49.358;11.256;2023-07-16T15:05:31;31.60;99.00
8643;DHT22;4359;49.358;11.256;2023-07-16T15:07:57;31.80;98.50
8643;DHT22;4359;49.358;11.256;2023-07-16T15:10:22;31.90;98.50
8643;DHT22;4359;49.358;11.256;2023-07-16T15:12:48;32.00;98.00
8643;DHT22;4359;49.358;11.256;2023-07-16T15:15:14;31.60;97.80
8643;DHT22;4359;49.358;11.256;2023-07-16T15:17:40;31.90;97.90
8643;DHT22;4359;49.358;11.256;2023-07-16T15:20:06;32.20;98.00
8643;DHT22;4359;49.358;11.256;2023-07-16T15:22:32;32.30;97.60
8643;DHT22;4359;49.358;11.256;2023-07-16T15:24:59;32.50;96.50
8643;DHT22;4359;49.358;11.256;2023-07-16T15:27:26;32.30;96.60
8643;DHT22;4359;49.358;11.256;2023-07-16T15:29:52;31.20;97.90
8643;DHT22;4359;49.358;11.256;2023-07-16T15:32:17;31.10;98.90
8643;DHT22;4359;49.358;11.256;2023-07-16T15:34:43;31.20;98.60
8643;DHT22;4359;49.358;11.256;2023-07-16T15:37:09;31.80;97.50
8643;DHT22;4359;49.358;11.256;2023-07-16T15:39:35;30.70;97.80
8643;DHT22;4359;49.358;11.256;2023-07-16T15:42:01;30.20;98.00
8643;DHT22;4359;49.358;11.256;2023-07-16T15:44:27;29.00;99.50
8643;DHT22;4359;49.358;11.256;2023-07-16T15:46:52;28.40;99.90
8643;DHT22;4359;49.358;11.256;2023-07-16T15:49:18;28.10;99.90
8643;DHT22;4359;49.358;11.256;2023-07-16T15:51:44;28.00;99.90
8643;DHT22;4359;49.358;11.256;2023-07-16T15:54:10;28.00;99.90